createdAt,value
2022-11-10T00:00:22.322Z,0.00
2022-11-10T00:01:25.712Z,0.00
2022-11-10T00:02:29.299Z,0.43
2022-11-10T00:03:33.092Z,0.37
2022-11-10T00:04:36.615Z,0.00
2022-11-10T00:05:40.036Z,0.00
2022-11-10T00:06:43.600Z,0.00
2022-11-10T00:07:47.160Z,0.00
2022-11-10T00:08:50.543Z,0.00
2022-11-10T00:09:54.234Z,0.25
2022-11-10T00:10:57.833Z,0.57
2022-11-10T00:12:01.421Z,0.00
2022-11-10T00:13:04.725Z,0.00
2022-11-10T00:14:08.294Z,0.43
2022-11-10T00:15:11.884Z,0.57
2022-11-10T00:16:15.369Z,0.00
2022-11-10T00:17:18.662Z,0.00
2022-11-10T00:18:21.945Z,0.00
2022-11-10T00:19:25.123Z,0.00
2022-11-10T00:20:28.510Z,0.00
2022-11-10T00:21:32.016Z,0.00
2022-11-10T00:22:35.290Z,0.00
2022-11-10T00:23:38.602Z,0.43
2022-11-10T00:24:41.853Z,2.43
2022-11-10T00:25:45.138Z,3.71
2022-11-10T00:26:48.421Z,0.57
2022-11-10T00:27:51.931Z,0.00
2022-11-10T00:28:55.398Z,0.00
2022-11-10T00:29:58.586Z,0.00
2022-11-10T00:31:01.759Z,0.29
2022-11-10T00:32:05.380Z,0.00
2022-11-10T00:33:08.639Z,0.43
2022-11-10T00:34:11.775Z,1.00
2022-11-10T00:35:14.898Z,0.67
2022-11-10T00:36:18.288Z,0.00
2022-11-10T00:37:21.568Z,0.00
2022-11-10T00:38:24.958Z,0.00
2022-11-10T00:39:28.273Z,0.00
2022-11-10T00:40:31.728Z,0.00
2022-11-10T00:41:35.118Z,0.00
2022-11-10T00:42:38.297Z,0.00
2022-11-10T00:43:41.681Z,0.00
2022-11-10T00:44:44.968Z,0.00
2022-11-10T00:45:48.149Z,0.00
2022-11-10T00:46:51.645Z,0.00
2022-11-10T00:47:54.922Z,0.00
2022-11-10T00:48:59.439Z,0.00
2022-11-10T00:50:02.940Z,0.50
2022-11-10T00:51:06.293Z,0.57
2022-11-10T00:52:09.698Z,0.00
2022-11-10T00:53:13.190Z,0.00
2022-11-10T00:54:16.782Z,0.00
2022-11-10T00:55:20.061Z,0.00
2022-11-10T00:56:23.347Z,0.00
2022-11-10T00:57:26.940Z,0.00
2022-11-10T00:58:30.431Z,0.14
2022-11-10T00:59:34.327Z,0.57
2022-11-10T01:00:38.140Z,0.00
2022-11-10T01:01:41.715Z,0.00
2022-11-10T01:02:45.512Z,0.29
2022-11-10T01:03:49.102Z,0.00
2022-11-10T01:04:52.692Z,0.00
2022-11-10T01:05:56.181Z,0.00
2022-11-10T01:06:59.658Z,0.00
2022-11-10T01:08:03.160Z,0.00
2022-11-10T01:09:06.545Z,0.00
2022-11-10T01:10:10.147Z,0.86
2022-11-10T01:11:13.834Z,0.86
2022-11-10T01:12:17.358Z,0.00
2022-11-10T01:13:21.011Z,0.00
2022-11-10T01:14:24.504Z,0.00
2022-11-10T01:15:28.010Z,0.00
2022-11-10T01:16:32.097Z,0.00
2022-11-10T01:17:35.665Z,0.00
2022-11-10T01:18:39.184Z,0.00
2022-11-10T01:19:42.563Z,0.00
2022-11-10T01:20:46.165Z,0.00
2022-11-10T01:21:49.330Z,0.00
2022-11-10T01:22:52.933Z,0.33
2022-11-10T01:23:56.501Z,0.57
2022-11-10T01:25:00.021Z,0.00
2022-11-10T01:26:03.656Z,0.00
2022-11-10T01:27:07.195Z,0.00
2022-11-10T01:28:10.682Z,0.86
2022-11-10T01:29:14.182Z,1.14
2022-11-10T01:30:17.557Z,0.00
2022-11-10T01:31:20.526Z,0.00
2022-11-10T01:32:24.044Z,0.43
2022-11-10T01:33:27.308Z,0.57
2022-11-10T01:34:30.726Z,0.00
2022-11-10T01:35:34.183Z,0.57
2022-11-10T01:36:37.680Z,0.00
2022-11-10T01:37:41.170Z,0.00
2022-11-10T01:38:44.343Z,0.00
2022-11-10T01:39:47.627Z,0.33
2022-11-10T01:40:50.813Z,0.43
2022-11-10T01:41:54.317Z,1.00
2022-11-10T01:42:57.841Z,0.86
2022-11-10T01:44:01.533Z,1.00
2022-11-10T01:45:04.864Z,0.14
2022-11-10T01:46:08.150Z,0.00
2022-11-10T01:47:11.333Z,0.43
2022-11-10T01:48:14.623Z,0.33
2022-11-10T01:49:18.307Z,0.57
2022-11-10T01:50:21.904Z,0.29
2022-11-10T01:51:25.185Z,1.00
2022-11-10T01:52:28.474Z,0.86
2022-11-10T01:53:31.667Z,0.57
2022-11-10T01:54:35.046Z,0.00
2022-11-10T01:55:38.426Z,0.00
2022-11-10T01:56:41.611Z,0.00
2022-11-10T01:57:44.992Z,0.43
2022-11-10T01:58:48.379Z,1.00
2022-11-10T01:59:51.873Z,0.71
2022-11-10T02:00:55.114Z,0.43
2022-11-10T02:01:58.335Z,0.57
2022-11-10T02:03:01.632Z,0.00
2022-11-10T02:04:05.418Z,0.86
2022-11-10T02:05:09.009Z,1.14
2022-11-10T02:06:12.497Z,0.50
2022-11-10T02:07:15.833Z,0.57
2022-11-10T02:08:19.171Z,0.43
2022-11-10T02:09:22.277Z,0.00
2022-11-10T02:10:25.428Z,0.00
2022-11-10T02:11:28.711Z,0.00
2022-11-10T02:12:32.305Z,0.00
2022-11-10T02:13:35.616Z,0.43
2022-11-10T02:14:38.871Z,0.57
2022-11-10T02:15:42.347Z,0.43
2022-11-10T02:16:45.861Z,0.57
2022-11-10T02:17:49.443Z,0.00
2022-11-10T02:18:52.928Z,0.00
2022-11-10T02:19:56.275Z,0.57
2022-11-10T02:20:59.526Z,0.67
2022-11-10T02:22:02.891Z,0.14
2022-11-10T02:23:06.481Z,0.00
2022-11-10T02:24:10.071Z,0.00
2022-11-10T02:25:13.763Z,0.00
2022-11-10T02:26:17.251Z,0.43
2022-11-10T02:27:20.432Z,0.57
2022-11-10T02:28:23.816Z,0.00
2022-11-10T02:29:27.112Z,0.43
2022-11-10T02:30:30.592Z,0.57
2022-11-10T02:31:34.183Z,0.00
2022-11-10T02:32:37.782Z,0.00
2022-11-10T02:33:41.162Z,0.43
2022-11-10T02:34:45.062Z,0.57
2022-11-10T02:35:48.661Z,0.43
2022-11-10T02:36:52.046Z,0.57
2022-11-10T02:37:55.531Z,0.00
2022-11-10T02:38:59.021Z,0.00
2022-11-10T02:40:02.792Z,0.00
2022-11-10T02:41:06.074Z,0.37
2022-11-10T02:42:09.691Z,0.57
2022-11-10T02:43:13.178Z,0.43
2022-11-10T02:44:17.281Z,0.57
2022-11-10T02:45:20.495Z,0.25
2022-11-10T02:46:23.655Z,0.00
2022-11-10T02:47:26.824Z,0.00
2022-11-10T02:48:30.112Z,0.00
2022-11-10T02:49:33.396Z,0.14
2022-11-10T02:50:36.579Z,0.00
2022-11-10T02:51:39.862Z,0.00
2022-11-10T02:52:42.950Z,0.00
2022-11-10T02:53:46.021Z,0.00
2022-11-10T02:54:49.515Z,0.00
2022-11-10T02:55:52.454Z,0.00
2022-11-10T02:56:55.520Z,0.00
2022-11-10T02:57:59.059Z,0.00
2022-11-10T02:59:02.216Z,0.00
2022-11-10T03:00:05.622Z,0.00
2022-11-10T03:01:08.971Z,0.00
2022-11-10T03:02:12.296Z,0.00
2022-11-10T03:03:16.571Z,0.00
2022-11-10T03:04:19.693Z,0.00
2022-11-10T03:05:23.168Z,0.00
2022-11-10T03:06:26.250Z,0.00
2022-11-10T03:07:29.840Z,0.00
2022-11-10T03:08:33.443Z,0.00
2022-11-10T03:09:36.845Z,0.43
2022-11-10T03:10:40.135Z,1.00
2022-11-10T03:11:43.391Z,0.00
2022-11-10T03:12:46.843Z,0.00
2022-11-10T03:14:01.467Z,0.00
2022-11-10T03:14:54.674Z,0.00
2022-11-10T03:15:58.059Z,0.00
2022-11-10T03:17:01.445Z,0.14
2022-11-10T03:18:04.840Z,0.14
2022-11-10T03:19:08.218Z,0.71
2022-11-10T03:20:11.605Z,0.67
2022-11-10T03:21:15.095Z,0.00
2022-11-10T03:22:18.488Z,0.00
2022-11-10T03:23:22.027Z,0.57
2022-11-10T03:24:25.462Z,0.00
2022-11-10T03:25:28.747Z,0.00
2022-11-10T03:26:32.131Z,0.00
2022-11-10T03:27:35.223Z,0.43
2022-11-10T03:28:38.292Z,0.67
2022-11-10T03:29:41.571Z,0.00
2022-11-10T03:30:44.633Z,0.00
2022-11-10T03:31:47.854Z,0.00
2022-11-10T03:32:51.127Z,0.00
2022-11-10T03:33:54.394Z,0.43
2022-11-10T03:34:57.693Z,0.57
2022-11-10T03:36:00.872Z,0.00
2022-11-10T03:37:04.259Z,0.00
2022-11-10T03:38:07.442Z,0.00
2022-11-10T03:39:10.822Z,0.00
2022-11-10T03:40:14.107Z,0.00
2022-11-10T03:41:19.862Z,0.00
2022-11-10T03:42:21.906Z,0.00
2022-11-10T03:43:25.294Z,0.00
2022-11-10T03:44:28.610Z,0.00
2022-11-10T03:45:31.981Z,0.00
2022-11-10T03:46:35.974Z,0.00
2022-11-10T03:47:39.769Z,0.00
2022-11-10T03:48:45.373Z,0.50
2022-11-10T03:49:47.968Z,0.50
2022-11-10T03:50:51.483Z,0.00
2022-11-10T03:51:54.600Z,0.00
2022-11-10T03:52:58.027Z,0.33
2022-11-10T03:54:01.617Z,0.50
2022-11-10T03:55:05.002Z,0.00
2022-11-10T03:56:08.388Z,0.29
2022-11-10T03:57:11.879Z,1.00
2022-11-10T03:58:15.471Z,0.57
2022-11-10T03:59:18.575Z,0.00
2022-11-10T04:00:21.612Z,0.00
2022-11-10T04:01:24.962Z,0.86
2022-11-10T04:02:28.108Z,0.71
2022-11-10T04:03:31.583Z,0.00
2022-11-10T04:04:35.175Z,0.00
2022-11-10T04:05:38.666Z,0.57
2022-11-10T04:06:41.902Z,0.57
2022-11-10T04:07:45.033Z,0.00
2022-11-10T04:08:48.296Z,0.00
2022-11-10T04:09:51.600Z,0.17
2022-11-10T04:10:54.682Z,0.57
2022-11-10T04:11:57.963Z,0.33
2022-11-10T04:13:01.127Z,0.67
2022-11-10T04:14:04.424Z,0.00
2022-11-10T04:15:07.609Z,0.00
2022-11-10T04:16:10.792Z,0.00
2022-11-10T04:17:14.077Z,0.14
2022-11-10T04:18:17.369Z,0.14
2022-11-10T04:19:20.748Z,0.43
2022-11-10T04:20:24.035Z,0.00
2022-11-10T04:21:27.313Z,0.00
2022-11-10T04:22:30.498Z,0.00
2022-11-10T04:23:33.688Z,0.33
2022-11-10T04:24:36.753Z,0.57
2022-11-10T04:25:41.068Z,0.00
2022-11-10T04:26:44.571Z,0.37
2022-11-10T04:27:47.978Z,0.00
2022-11-10T04:28:51.227Z,0.43
2022-11-10T04:29:54.724Z,0.57
2022-11-10T04:30:58.012Z,0.00
2022-11-10T04:32:01.491Z,0.00
2022-11-10T04:33:05.184Z,0.00
2022-11-10T04:34:08.773Z,1.00
2022-11-10T04:35:12.087Z,0.57
2022-11-10T04:36:15.557Z,0.00
2022-11-10T04:37:18.751Z,0.00
2022-11-10T04:38:22.321Z,0.00
2022-11-10T04:39:25.709Z,0.00
2022-11-10T04:40:28.892Z,0.43
2022-11-10T04:41:32.414Z,0.57
2022-11-10T04:42:35.773Z,0.14
2022-11-10T04:43:39.154Z,0.67
2022-11-10T04:44:42.538Z,0.00
2022-11-10T04:45:45.826Z,0.00
2022-11-10T04:46:49.312Z,0.00
2022-11-10T04:47:52.914Z,0.00
2022-11-10T04:48:56.394Z,0.29
2022-11-10T04:49:59.883Z,0.14
2022-11-10T04:51:03.079Z,0.00
2022-11-10T04:52:06.350Z,0.00
2022-11-10T04:53:09.435Z,0.43
2022-11-10T04:54:12.706Z,0.57
2022-11-10T04:55:16.053Z,0.43
2022-11-10T04:56:19.182Z,0.57
2022-11-10T04:57:22.565Z,0.00
2022-11-10T04:58:25.773Z,0.43
2022-11-10T04:59:28.829Z,0.14
2022-11-10T05:00:32.183Z,0.00
2022-11-10T05:01:35.705Z,0.29
2022-11-10T05:02:39.762Z,0.00
2022-11-10T05:03:43.128Z,0.00
2022-11-10T05:04:46.181Z,0.00
2022-11-10T05:05:49.345Z,0.00
2022-11-10T05:06:52.645Z,0.00
2022-11-10T05:07:56.123Z,0.00
2022-11-10T05:08:59.411Z,0.00
2022-11-10T05:10:02.910Z,0.00
2022-11-10T05:11:06.389Z,0.00
2022-11-10T05:12:09.666Z,0.71
2022-11-10T05:13:13.168Z,0.57
2022-11-10T05:14:16.424Z,0.43
2022-11-10T05:15:19.623Z,0.57
2022-11-10T05:16:22.905Z,0.29
2022-11-10T05:17:26.307Z,0.00
2022-11-10T05:18:29.694Z,0.00
2022-11-10T05:19:33.074Z,0.00
2022-11-10T05:20:36.771Z,0.29
2022-11-10T05:21:40.252Z,0.00
2022-11-10T05:22:49.117Z,0.00
2022-11-10T05:23:51.304Z,0.50
2022-11-10T05:24:54.824Z,1.00
2022-11-10T05:25:58.215Z,0.57
2022-11-10T05:27:01.693Z,0.29
2022-11-10T05:28:05.180Z,0.00
2022-11-10T05:29:08.668Z,0.00
2022-11-10T05:30:12.157Z,0.43
2022-11-10T05:31:15.651Z,0.57
2022-11-10T05:32:18.992Z,0.57
2022-11-10T05:33:22.492Z,0.00
2022-11-10T05:34:26.010Z,0.00
2022-11-10T05:35:29.356Z,0.00
2022-11-10T05:36:32.890Z,0.00
2022-11-10T05:37:36.787Z,0.00
2022-11-10T05:38:43.482Z,0.00
2022-11-10T05:39:44.993Z,0.25
2022-11-10T05:40:48.486Z,0.50
2022-11-10T05:41:52.066Z,1.00
2022-11-10T05:42:55.566Z,1.00
2022-11-10T05:43:59.367Z,1.00
2022-11-10T05:45:02.619Z,0.14
2022-11-10T05:46:06.023Z,0.17
2022-11-10T05:47:09.313Z,0.43
2022-11-10T05:48:12.704Z,0.57
2022-11-10T05:49:16.287Z,0.00
2022-11-10T05:50:19.785Z,0.00
2022-11-10T05:51:23.171Z,0.43
2022-11-10T05:52:26.351Z,0.57
2022-11-10T05:53:29.943Z,0.00
2022-11-10T05:54:33.325Z,0.86
2022-11-10T05:55:36.814Z,1.29
2022-11-10T05:56:40.616Z,0.43
2022-11-10T05:57:44.100Z,0.37
2022-11-10T05:58:47.485Z,0.00
2022-11-10T05:59:50.789Z,0.43
2022-11-10T06:00:54.167Z,0.67
2022-11-10T06:01:57.450Z,0.00
2022-11-10T06:03:00.816Z,0.86
2022-11-10T06:04:04.296Z,1.14
2022-11-10T06:05:07.607Z,0.29
2022-11-10T06:06:11.090Z,0.14
2022-11-10T06:07:14.618Z,0.43
2022-11-10T06:08:17.956Z,1.00
2022-11-10T06:09:21.148Z,0.00
2022-11-10T06:10:24.333Z,0.00
2022-11-10T06:11:27.529Z,0.00
2022-11-10T06:12:30.811Z,1.43
2022-11-10T06:13:34.282Z,1.57
2022-11-10T06:14:37.668Z,1.29
2022-11-10T06:15:42.227Z,1.14
2022-11-10T06:16:45.432Z,0.00
2022-11-10T06:17:48.753Z,0.43
2022-11-10T06:18:52.340Z,0.43
2022-11-10T06:19:55.933Z,0.43
2022-11-10T06:20:59.428Z,0.00
2022-11-10T06:22:07.344Z,0.43
2022-11-10T06:23:07.226Z,0.13
2022-11-10T06:24:10.814Z,0.00
2022-11-10T06:25:14.304Z,0.43
2022-11-10T06:26:17.800Z,0.71
2022-11-10T06:27:21.098Z,0.43
2022-11-10T06:28:24.474Z,0.57
2022-11-10T06:29:27.752Z,0.00
2022-11-10T06:30:31.032Z,0.50
2022-11-10T06:31:34.627Z,0.67
2022-11-10T06:32:38.328Z,0.57
2022-11-10T06:33:41.910Z,0.43
2022-11-10T06:34:45.412Z,0.14
2022-11-10T06:35:48.994Z,0.29
2022-11-10T06:36:52.700Z,0.00
2022-11-10T06:37:56.172Z,0.43
2022-11-10T06:38:59.457Z,0.14
2022-11-10T06:40:02.949Z,0.33
2022-11-10T06:41:06.333Z,0.71
2022-11-10T06:42:09.924Z,0.57
2022-11-10T06:43:14.432Z,0.29
2022-11-10T06:44:17.895Z,0.00
2022-11-10T06:45:21.111Z,0.29
2022-11-10T06:46:23.897Z,0.43
2022-11-10T06:47:26.525Z,0.43
2022-11-10T06:48:29.176Z,1.83
2022-11-10T06:49:31.708Z,1.50
2022-11-10T06:50:34.226Z,1.83
2022-11-10T06:51:36.902Z,1.67
2022-11-10T06:52:39.439Z,0.67
2022-11-10T06:53:42.013Z,0.00
2022-11-10T06:54:44.622Z,0.20
2022-11-10T06:55:47.375Z,1.00
2022-11-10T06:56:49.891Z,0.17
2022-11-10T06:57:52.874Z,0.00
2022-11-10T06:58:55.478Z,0.33
2022-11-10T06:59:58.154Z,0.00
2022-11-10T07:01:00.830Z,0.43
2022-11-10T07:02:03.424Z,1.33
2022-11-10T07:03:05.949Z,0.00
2022-11-10T07:04:23.559Z,0.00
2022-11-10T07:05:12.501Z,0.86
2022-11-10T07:06:15.349Z,1.67
2022-11-10T07:07:18.152Z,0.67
2022-11-10T07:08:21.084Z,1.43
2022-11-10T07:09:23.800Z,2.00
2022-11-10T07:10:26.456Z,1.43
2022-11-10T07:11:29.086Z,0.83
2022-11-10T07:12:31.747Z,0.33
2022-11-10T07:13:34.441Z,0.67
2022-11-10T07:14:37.445Z,0.00
2022-11-10T07:15:40.164Z,0.43
2022-11-10T07:16:42.997Z,1.00
2022-11-10T07:17:45.804Z,0.67
2022-11-10T07:18:48.703Z,0.67
2022-11-10T07:19:51.628Z,0.43
2022-11-10T07:20:54.315Z,1.00
2022-11-10T07:21:57.110Z,0.71
2022-11-10T07:22:59.724Z,0.33
2022-11-10T07:24:02.561Z,1.00
2022-11-10T07:25:05.719Z,1.83
2022-11-10T07:26:08.564Z,0.57
2022-11-10T07:27:11.411Z,0.00
2022-11-10T07:28:14.192Z,0.67
2022-11-10T07:29:17.035Z,1.67
2022-11-10T07:30:19.905Z,0.17
2022-11-10T07:31:22.421Z,0.67
2022-11-10T07:32:25.056Z,1.33
2022-11-10T07:33:27.655Z,0.67
2022-11-10T07:34:30.246Z,1.33
2022-11-10T07:35:42.170Z,1.00
2022-11-10T07:36:45.343Z,0.00
2022-11-10T07:37:48.410Z,0.86
2022-11-10T07:38:51.603Z,2.00
2022-11-10T07:39:54.700Z,1.57
2022-11-10T07:40:57.970Z,1.00
2022-11-10T07:42:01.250Z,1.00
2022-11-10T07:43:04.292Z,1.00
2022-11-10T07:44:07.067Z,1.17
2022-11-10T07:45:10.189Z,1.00
2022-11-10T07:46:13.381Z,1.33
2022-11-10T07:47:16.436Z,0.83
2022-11-10T07:48:19.632Z,1.00
2022-11-10T07:49:22.800Z,1.43
2022-11-10T07:50:26.153Z,1.00
2022-11-10T07:51:29.480Z,0.57
2022-11-10T07:52:32.763Z,0.43
2022-11-10T07:53:35.967Z,1.29
2022-11-10T07:54:39.234Z,1.86
2022-11-10T07:55:42.408Z,2.00
2022-11-10T07:56:45.689Z,1.14
2022-11-10T07:57:48.876Z,0.86
2022-11-10T07:58:52.220Z,1.14
2022-11-10T07:59:57.955Z,0.00
2022-11-10T08:01:00.055Z,0.00
2022-11-10T08:02:03.696Z,1.00
2022-11-10T08:03:06.844Z,1.57
2022-11-10T08:04:10.224Z,1.43
2022-11-10T08:05:13.365Z,2.00
2022-11-10T08:06:16.880Z,2.29
2022-11-10T08:07:20.661Z,2.00
2022-11-10T08:08:24.073Z,1.37
2022-11-10T08:09:27.356Z,2.00
2022-11-10T08:10:30.511Z,0.57
2022-11-10T08:11:33.725Z,0.43
2022-11-10T08:12:37.307Z,1.29
2022-11-10T08:13:40.596Z,0.57
2022-11-10T08:14:44.198Z,1.00
2022-11-10T08:15:47.470Z,1.00
2022-11-10T08:16:50.976Z,0.83
2022-11-10T08:17:54.553Z,0.57
2022-11-10T08:18:58.063Z,0.00
2022-11-10T08:20:01.533Z,0.86
2022-11-10T08:21:04.840Z,1.50
2022-11-10T08:22:07.771Z,0.67
2022-11-10T08:23:10.969Z,0.33
2022-11-10T08:24:14.359Z,1.86
2022-11-10T08:25:17.812Z,1.71
2022-11-10T08:26:21.028Z,0.86
2022-11-10T08:27:24.212Z,1.57
2022-11-10T08:28:27.636Z,1.00
2022-11-10T08:29:30.786Z,1.43
2022-11-10T08:30:33.968Z,1.14
2022-11-10T08:31:37.347Z,0.00
2022-11-10T08:32:40.445Z,0.43
2022-11-10T08:33:43.819Z,1.00
2022-11-10T08:34:47.010Z,1.00
2022-11-10T08:35:50.810Z,1.00
2022-11-10T08:36:54.698Z,0.50
2022-11-10T08:37:58.530Z,0.43
2022-11-10T08:39:02.302Z,1.50
2022-11-10T08:40:05.490Z,1.57
2022-11-10T08:41:08.570Z,1.00
2022-11-10T08:42:11.877Z,1.00
2022-11-10T08:50:43.039Z,2.00
2022-11-10T08:51:46.206Z,0.86
2022-11-10T08:52:49.925Z,2.00
2022-11-10T08:53:53.382Z,2.29
2022-11-10T08:54:56.462Z,2.00
2022-11-10T08:56:00.166Z,1.67
2022-11-10T08:57:03.643Z,1.50
2022-11-10T08:58:07.039Z,1.14
2022-11-10T08:59:10.432Z,1.29
2022-11-10T09:00:13.502Z,1.57
2022-11-10T09:01:16.784Z,1.86
2022-11-10T09:02:19.663Z,1.86
2022-11-10T09:03:23.090Z,1.00
2022-11-10T09:04:26.708Z,1.00
2022-11-10T09:05:30.028Z,1.00
2022-11-10T09:06:33.565Z,0.57
2022-11-10T09:07:36.791Z,1.00
2022-11-10T09:08:39.869Z,2.33
2022-11-10T09:09:46.651Z,0.57
2022-11-10T09:10:47.669Z,0.13
2022-11-10T09:11:50.755Z,1.00
2022-11-10T09:12:53.833Z,1.67
2022-11-10T09:13:57.116Z,2.14
2022-11-10T09:15:00.231Z,1.00
2022-11-10T09:16:03.170Z,0.43
2022-11-10T09:17:06.375Z,1.00
2022-11-10T09:18:09.537Z,0.33
2022-11-10T09:19:18.472Z,1.00
2022-11-10T09:20:16.943Z,1.50
2022-11-10T09:21:20.012Z,1.50
2022-11-10T09:22:23.183Z,1.43
2022-11-10T09:23:26.430Z,1.57
2022-11-10T09:24:31.445Z,1.43
2022-11-10T09:25:33.714Z,2.00
2022-11-10T09:26:36.732Z,2.14
2022-11-10T09:27:39.906Z,2.00
2022-11-10T09:28:43.007Z,2.33
2022-11-10T09:29:46.069Z,1.57
2022-11-10T09:30:49.356Z,1.43
2022-11-10T09:31:52.535Z,1.57
2022-11-10T09:32:55.614Z,0.67
2022-11-10T09:33:58.587Z,0.33
2022-11-10T09:35:01.888Z,1.57
2022-11-10T09:36:04.966Z,1.43
2022-11-10T09:37:08.032Z,2.29
2022-11-10T09:38:11.323Z,1.57
2022-11-10T09:39:14.832Z,1.50
2022-11-10T09:40:18.403Z,1.43
2022-11-10T09:41:21.588Z,1.57
2022-11-10T09:42:24.764Z,1.43
2022-11-10T09:43:28.057Z,2.00
2022-11-10T09:44:31.301Z,2.14
2022-11-10T09:45:38.703Z,1.43
2022-11-10T09:46:38.741Z,1.50
2022-11-10T09:47:56.744Z,1.43
2022-11-10T09:48:46.109Z,2.00
2022-11-10T09:49:49.303Z,1.86
2022-11-10T09:50:52.489Z,0.67
2022-11-10T09:51:55.549Z,0.43
2022-11-10T09:52:58.631Z,1.00
2022-11-10T09:54:02.060Z,1.43
2022-11-10T09:55:05.304Z,2.00
2022-11-10T09:56:08.484Z,1.57
2022-11-10T09:57:11.561Z,0.43
2022-11-10T09:58:14.542Z,0.86
2022-11-10T09:59:17.818Z,1.00
2022-11-10T10:00:21.107Z,0.57
2022-11-10T10:01:24.459Z,0.33
2022-11-10T10:02:27.573Z,1.33
2022-11-10T10:03:30.752Z,1.33
2022-11-10T10:04:33.836Z,0.43
2022-11-10T10:05:37.220Z,2.43
2022-11-10T10:07:04.852Z,3.00
2022-11-10T10:07:44.965Z,2.00
2022-11-10T10:08:48.302Z,1.00
2022-11-10T10:09:52.101Z,1.33
2022-11-10T10:10:55.490Z,0.43
2022-11-10T10:11:58.772Z,0.57
2022-11-10T10:13:02.173Z,0.00
2022-11-10T10:14:05.653Z,0.86
2022-11-10T10:15:09.035Z,0.50
2022-11-10T10:16:12.214Z,0.86
2022-11-10T10:17:15.502Z,2.00
2022-11-10T10:18:19.032Z,1.14
2022-11-10T10:19:22.689Z,1.29
2022-11-10T10:20:25.919Z,2.00
2022-11-10T10:21:29.043Z,1.00
2022-11-10T10:22:32.223Z,1.33
2022-11-10T10:24:07.257Z,1.14
2022-11-10T10:24:39.795Z,0.00
2022-11-10T10:25:43.014Z,0.33
2022-11-10T10:26:46.387Z,1.00
2022-11-10T10:27:49.573Z,1.29
2022-11-10T10:28:52.954Z,1.86
2022-11-10T10:29:56.261Z,1.43
2022-11-10T10:30:59.525Z,1.17
2022-11-10T10:32:02.911Z,1.00
2022-11-10T10:33:06.431Z,0.57
2022-11-10T10:34:09.584Z,0.71
2022-11-10T10:35:13.066Z,1.00
2022-11-10T10:36:16.464Z,1.14
2022-11-10T10:37:19.660Z,1.14
2022-11-10T10:38:23.486Z,0.43
2022-11-10T10:39:26.825Z,1.37
2022-11-10T10:40:30.011Z,1.00
2022-11-10T10:41:33.301Z,1.33
2022-11-10T10:42:36.575Z,1.67
2022-11-10T10:43:39.754Z,1.00
2022-11-10T10:44:42.733Z,2.00
2022-11-10T10:45:45.926Z,1.29
2022-11-10T10:46:48.992Z,2.00
2022-11-10T10:47:52.068Z,2.14
2022-11-10T10:49:22.185Z,1.00
2022-11-10T10:49:59.488Z,2.00
2022-11-10T10:51:02.546Z,2.00
2022-11-10T10:52:05.856Z,2.14
2022-11-10T10:53:08.929Z,0.57
2022-11-10T10:54:12.089Z,1.43
2022-11-10T10:55:15.176Z,1.57
2022-11-10T10:56:18.245Z,1.67
2022-11-10T10:57:21.326Z,1.00
2022-11-10T10:58:25.057Z,0.57
2022-11-10T10:59:28.258Z,0.00
2022-11-10T11:00:31.276Z,0.33
2022-11-10T11:01:34.521Z,1.00
2022-11-10T11:02:37.845Z,1.43
2022-11-10T11:03:41.232Z,1.00
2022-11-10T11:04:44.426Z,1.00
2022-11-10T11:05:47.804Z,0.57
2022-11-10T11:06:51.234Z,0.43
2022-11-10T11:07:54.470Z,0.57
2022-11-10T11:08:59.627Z,0.33
2022-11-10T11:10:02.380Z,1.00
2022-11-10T11:11:05.760Z,1.00
2022-11-10T11:12:09.145Z,0.57
2022-11-10T11:13:12.517Z,0.43
2022-11-10T11:14:15.722Z,1.00
2022-11-10T11:15:19.100Z,0.43
2022-11-10T11:16:22.483Z,1.29
2022-11-10T11:17:26.022Z,1.29
2022-11-10T11:18:28.952Z,0.75
2022-11-10T11:19:32.133Z,0.33
2022-11-10T11:20:35.319Z,1.00
2022-11-10T11:21:38.401Z,1.00
2022-11-10T11:22:41.586Z,1.43
2022-11-10T11:23:44.764Z,1.57
2022-11-10T11:24:48.055Z,1.57
2022-11-10T11:25:51.326Z,1.43
2022-11-10T11:26:54.415Z,1.14
2022-11-10T11:27:57.488Z,1.00
2022-11-10T11:29:00.974Z,0.57
2022-11-10T11:30:04.373Z,0.43
2022-11-10T11:31:07.850Z,0.00
2022-11-10T11:32:11.036Z,0.43
2022-11-10T11:33:14.422Z,1.00
2022-11-10T11:34:17.907Z,1.00
2022-11-10T11:35:21.292Z,0.57
2022-11-10T11:36:24.683Z,0.43
2022-11-10T11:37:27.866Z,0.43
2022-11-10T11:38:31.145Z,1.43
2022-11-10T11:39:34.431Z,1.57
2022-11-10T11:40:38.739Z,1.14
2022-11-10T11:41:42.370Z,0.50
2022-11-10T11:42:45.510Z,0.00
2022-11-10T11:43:49.003Z,1.43
2022-11-10T11:44:52.387Z,1.14
2022-11-10T11:45:55.774Z,0.43
2022-11-10T11:46:58.488Z,1.00
2022-11-10T11:48:01.529Z,1.17
2022-11-10T11:49:04.812Z,2.00
2022-11-10T11:50:07.955Z,1.29
2022-11-10T11:51:11.274Z,1.43
2022-11-10T11:52:14.455Z,2.29
2022-11-10T11:53:17.549Z,0.86
2022-11-10T11:54:20.724Z,2.33
2022-11-10T11:55:23.900Z,0.67
2022-11-10T11:56:27.093Z,0.43
2022-11-10T11:57:31.666Z,1.43
2022-11-10T11:58:34.919Z,2.50
2022-11-10T11:59:38.069Z,2.33
2022-11-10T12:00:41.148Z,1.33
2022-11-10T12:01:44.324Z,1.67
2022-11-10T12:02:52.432Z,1.86
2022-11-10T12:03:51.502Z,1.75
2022-11-10T12:04:54.545Z,1.43
2022-11-10T12:05:57.565Z,2.83
2022-11-10T12:07:00.777Z,2.29
2022-11-10T12:08:03.925Z,1.57
2022-11-10T12:09:07.106Z,2.57
2022-11-10T12:10:10.496Z,2.71
2022-11-10T12:11:13.885Z,1.43
2022-11-10T12:12:17.165Z,3.00
2022-11-10T12:13:20.345Z,2.57
2022-11-10T12:14:23.837Z,2.00
2022-11-10T12:15:26.933Z,2.00
2022-11-10T12:16:30.196Z,1.43
2022-11-10T12:17:33.173Z,0.00
2022-11-10T12:18:36.352Z,0.86
2022-11-10T12:19:39.740Z,1.67
2022-11-10T12:20:43.034Z,1.67
2022-11-10T12:21:46.309Z,1.71
2022-11-10T12:22:49.570Z,0.43
2022-11-10T12:23:52.882Z,1.33
2022-11-10T12:24:56.274Z,2.29
2022-11-10T12:25:59.653Z,2.29
2022-11-10T12:27:02.833Z,1.43
2022-11-10T12:28:06.121Z,1.29
2022-11-10T12:29:09.212Z,1.86
2022-11-10T12:30:12.362Z,2.67
2022-11-10T12:31:15.362Z,1.67
2022-11-10T12:32:18.547Z,1.00
2022-11-10T12:33:21.622Z,1.00
2022-11-10T12:34:24.698Z,1.00
2022-11-10T12:35:27.776Z,1.33
2022-11-10T12:36:31.068Z,2.00
2022-11-10T12:37:34.353Z,1.57
2022-11-10T12:38:37.537Z,1.00
2022-11-10T12:39:40.820Z,0.57
2022-11-10T12:40:44.200Z,0.57
2022-11-10T12:41:47.581Z,0.57
2022-11-10T12:42:50.869Z,0.43
2022-11-10T12:43:54.183Z,2.43
2022-11-10T12:44:57.334Z,2.57
2022-11-10T12:46:00.722Z,2.00
2022-11-10T12:47:04.020Z,1.57
2022-11-10T12:48:07.396Z,0.57
2022-11-10T12:49:10.881Z,0.00
2022-11-10T12:50:14.169Z,0.86
2022-11-10T12:51:17.466Z,2.00
2022-11-10T12:52:20.425Z,1.33
2022-11-10T12:53:23.709Z,1.43
2022-11-10T12:54:27.211Z,0.43
2022-11-10T12:55:30.284Z,1.43
2022-11-10T12:56:33.567Z,1.57
2022-11-10T12:57:37.343Z,1.57
2022-11-10T12:58:40.649Z,0.00
2022-11-10T12:59:44.032Z,1.29
2022-11-10T13:00:47.519Z,2.14
2022-11-10T13:01:50.836Z,1.43
2022-11-10T13:02:54.088Z,1.14
2022-11-10T13:03:57.447Z,0.00
2022-11-10T13:05:00.552Z,0.00
2022-11-10T13:06:03.933Z,0.43
2022-11-10T13:07:12.818Z,1.00
2022-11-10T13:08:11.919Z,0.62
2022-11-10T13:09:15.126Z,0.00
2022-11-10T13:10:18.524Z,0.67
2022-11-10T13:11:21.693Z,0.67
2022-11-10T13:12:25.080Z,0.33
2022-11-10T13:13:28.269Z,1.00
2022-11-10T13:14:31.343Z,1.00
2022-11-10T13:15:34.400Z,0.67
2022-11-10T13:16:37.406Z,1.00
2022-11-10T13:17:40.818Z,1.14
2022-11-10T13:18:43.865Z,0.86
2022-11-10T13:19:47.325Z,1.00
2022-11-10T13:20:50.553Z,1.67
2022-11-10T13:21:54.025Z,2.14
2022-11-10T13:22:57.105Z,0.43
2022-11-10T13:24:00.593Z,1.00
2022-11-10T13:25:03.731Z,1.00
2022-11-10T13:26:07.061Z,1.00
2022-11-10T13:27:10.242Z,1.00
2022-11-10T13:28:13.324Z,1.00
2022-11-10T13:29:16.604Z,1.00
2022-11-10T13:30:19.789Z,0.57
2022-11-10T13:31:23.070Z,0.86
2022-11-10T13:32:26.363Z,1.14
2022-11-10T13:33:29.557Z,1.29
2022-11-10T13:34:32.487Z,1.57
2022-11-10T13:35:35.501Z,1.50
2022-11-10T13:36:38.590Z,2.83
2022-11-10T13:37:41.965Z,1.86
2022-11-10T13:38:45.531Z,1.00
2022-11-10T13:39:48.732Z,1.43
2022-11-10T13:40:51.937Z,1.00
2022-11-10T13:41:55.301Z,0.14
2022-11-10T13:42:58.683Z,0.43
2022-11-10T13:44:02.031Z,1.00
2022-11-10T13:45:05.249Z,1.00
2022-11-10T13:46:08.528Z,1.14
2022-11-10T13:47:11.816Z,2.00
2022-11-10T13:48:15.153Z,2.00
2022-11-10T13:49:18.289Z,1.14
2022-11-10T13:50:21.574Z,0.43
2022-11-10T13:51:24.759Z,0.43
2022-11-10T13:52:27.844Z,1.86
2022-11-10T13:53:30.911Z,2.14
2022-11-10T13:54:33.932Z,1.00
2022-11-10T13:55:36.865Z,2.00
2022-11-10T13:56:40.156Z,2.57
2022-11-10T13:57:43.537Z,1.86
2022-11-10T13:58:46.929Z,1.57
2022-11-10T13:59:50.417Z,1.00
2022-11-10T14:00:53.701Z,1.00
2022-11-10T14:01:56.875Z,1.00
2022-11-10T14:03:00.570Z,1.00
2022-11-10T14:04:04.034Z,1.00
2022-11-10T14:05:07.345Z,1.00
2022-11-10T14:06:10.741Z,1.00
2022-11-10T14:07:14.158Z,1.43
2022-11-10T14:08:17.298Z,1.14
2022-11-10T14:09:20.588Z,0.00
2022-11-10T14:10:24.061Z,0.43